sensor_id;sensor_type;location;lat;lon;timestamp;pressure;altitude;pressure_sealevel;temperature;humidity
11339;BME280;5724;42.684;23.252;2023-02-19T00:00:29;94632.41;;;6.46;62.40
11339;BME280;5724;42.684;23.252;2023-02-19T00:02:54;94630.78;;;6.53;62.41
11339;BME280;5724;42.684;23.252;2023-02-19T00:05:22;94627.13;;;6.58;62.39
11339;BME280;5724;42.684;23.252;2023-02-19T00:07:47;94631.75;;;6.57;62.59
11339;BME280;5724;42.684;23.252;2023-02-19T00:10:13;94620.66;;;6.33;63.41
11339;BME280;5724;42.684;23.252;2023-02-19T00:12:38;94614.44;;;6.32;62.70
11339;BME280;5724;42.684;23.252;2023-02-19T00:15:04;94602.81;;;6.23;63.68
11339;BME280;5724;42.684;23.252;2023-02-19T00:17:30;94606.19;;;6.20;63.77
11339;BME280;5724;42.684;23.252;2023-02-19T00:19:56;94609.06;;;6.15;63.67
11339;BME280;5724;42.684;23.252;2023-02-19T00:22:21;94606.53;;;6.10;63.92
11339;BME280;5724;42.684;23.252;2023-02-19T00:24:47;94602.69;;;6.11;63.61
11339;BME280;5724;42.684;23.252;2023-02-19T00:27:13;94593.13;;;6.05;64.00
11339;BME280;5724;42.684;23.252;2023-02-19T00:29:38;94584.22;;;5.87;64.14
11339;BME280;5724;42.684;23.252;2023-02-19T00:32:04;94587.72;;;5.88;64.72
11339;BME280;5724;42.684;23.252;2023-02-19T00:34:29;94585.00;;;5.88;65.30
11339;BME280;5724;42.684;23.252;2023-02-19T00:36:55;94583.09;;;5.97;63.97
11339;BME280;5724;42.684;23.252;2023-02-19T00:39:20;94589.34;;;5.89;65.18
11339;BME280;5724;42.684;23.252;2023-02-19T00:41:46;94583.91;;;5.89;65.09
11339;BME280;5724;42.684;23.252;2023-02-19T00:44:12;94569.59;;;5.80;64.68
11339;BME280;5724;42.684;23.252;2023-02-19T00:46:41;94570.66;;;5.87;64.39
11339;BME280;5724;42.684;23.252;2023-02-19T00:49:07;94574.03;;;5.93;64.53
11339;BME280;5724;42.684;23.252;2023-02-19T00:51:37;94563.97;;;5.85;65.30
11339;BME280;5724;42.684;23.252;2023-02-19T00:54:04;94564.19;;;5.62;66.25
11339;BME280;5724;42.684;23.252;2023-02-19T00:56:30;94560.84;;;5.57;66.75
11339;BME280;5724;42.684;23.252;2023-02-19T00:58:55;94565.47;;;5.39;67.02
11339;BME280;5724;42.684;23.252;2023-02-19T01:01:21;94561.97;;;5.30;67.87
11339;BME280;5724;42.684;23.252;2023-02-19T01:03:47;94561.97;;;5.30;67.57
11339;BME280;5724;42.684;23.252;2023-02-19T01:06:14;94541.59;;;5.32;67.25
11339;BME280;5724;42.684;23.252;2023-02-19T01:08:40;94565.66;;;5.34;67.18
11339;BME280;5724;42.684;23.252;2023-02-19T01:11:06;94557.22;;;5.18;68.50
11339;BME280;5724;42.684;23.252;2023-02-19T01:13:32;94566.94;;;5.28;67.71
11339;BME280;5724;42.684;23.252;2023-02-19T01:16:03;94546.53;;;5.30;67.50
11339;BME280;5724;42.684;23.252;2023-02-19T01:18:29;94560.56;;;5.24;68.34
11339;BME280;5724;42.684;23.252;2023-02-19T01:20:55;94570.28;;;5.25;68.70
11339;BME280;5724;42.684;23.252;2023-02-19T01:23:20;94549.22;;;5.47;66.60
11339;BME280;5724;42.684;23.252;2023-02-19T01:25:46;94569.28;;;5.64;66.14
11339;BME280;5724;42.684;23.252;2023-02-19T01:28:11;94542.94;;;5.82;66.05
11339;BME280;5724;42.684;23.252;2023-02-19T01:30:37;94558.75;;;5.80;66.29
11339;BME280;5724;42.684;23.252;2023-02-19T01:33:04;94567.81;;;5.84;65.61
11339;BME280;5724;42.684;23.252;2023-02-19T01:35:30;94584.88;;;5.84;65.50
11339;BME280;5724;42.684;23.252;2023-02-19T01:37:56;94583.59;;;5.82;65.64
11339;BME280;5724;42.684;23.252;2023-02-19T01:40:22;94590.28;;;5.84;65.83
11339;BME280;5724;42.684;23.252;2023-02-19T01:42:47;94591.75;;;5.64;66.39
11339;BME280;5724;42.684;23.252;2023-02-19T01:45:28;94602.28;;;5.66;66.80
11339;BME280;5724;42.684;23.252;2023-02-19T01:47:59;94604.66;;;5.67;66.50
11339;BME280;5724;42.684;23.252;2023-02-19T01:50:28;94618.41;;;5.62;66.44
11339;BME280;5724;42.684;23.252;2023-02-19T01:52:54;94605.78;;;5.58;66.11
11339;BME280;5724;42.684;23.252;2023-02-19T01:55:21;94613.13;;;5.57;66.78
11339;BME280;5724;42.684;23.252;2023-02-19T01:57:51;94607.38;;;5.59;66.53
11339;BME280;5724;42.684;23.252;2023-02-19T02:00:17;94594.47;;;5.47;66.54
11339;BME280;5724;42.684;23.252;2023-02-19T02:02:47;94590.84;;;5.34;66.78
11339;BME280;5724;42.684;23.252;2023-02-19T02:05:24;94598.66;;;5.36;67.27
11339;BME280;5724;42.684;23.252;2023-02-19T02:07:55;94591.63;;;5.35;67.56
11339;BME280;5724;42.684;23.252;2023-02-19T02:10:40;94599.13;;;5.38;67.41
11339;BME280;5724;42.684;23.252;2023-02-19T02:13:07;94597.19;;;5.30;67.32
11339;BME280;5724;42.684;23.252;2023-02-19T02:15:39;94595.78;;;5.32;67.82
11339;BME280;5724;42.684;23.252;2023-02-19T02:18:51;94594.34;;;5.43;67.63
11339;BME280;5724;42.684;23.252;2023-02-19T02:24:31;94601.34;;;5.27;67.33
11339;BME280;5724;42.684;23.252;2023-02-19T02:35:27;94612.19;;;5.18;67.98
11339;BME280;5724;42.684;23.252;2023-02-19T02:37:58;94611.84;;;5.20;67.62
11339;BME280;5724;42.684;23.252;2023-02-19T02:40:25;94602.47;;;5.17;67.93
11339;BME280;5724;42.684;23.252;2023-02-19T02:42:51;94597.81;;;5.01;68.47
11339;BME280;5724;42.684;23.252;2023-02-19T02:48:05;94616.97;;;5.13;67.89
11339;BME280;5724;42.684;23.252;2023-02-19T02:50:40;94627.00;;;5.12;68.40
11339;BME280;5724;42.684;23.252;2023-02-19T02:53:11;94617.13;;;5.16;67.71
11339;BME280;5724;42.684;23.252;2023-02-19T02:55:57;94613.94;;;5.14;68.29
11339;BME280;5724;42.684;23.252;2023-02-19T02:58:25;94611.03;;;5.11;68.59
11339;BME280;5724;42.684;23.252;2023-02-19T03:01:00;94614.56;;;5.11;68.28
11339;BME280;5724;42.684;23.252;2023-02-19T03:03:49;94625.72;;;5.18;68.13
11339;BME280;5724;42.684;23.252;2023-02-19T03:06:20;94608.66;;;5.09;67.72
11339;BME280;5724;42.684;23.252;2023-02-19T03:08:56;94620.63;;;5.17;67.91
11339;BME280;5724;42.684;23.252;2023-02-19T03:11:24;94622.88;;;5.24;68.07
11339;BME280;5724;42.684;23.252;2023-02-19T03:14:21;94626.69;;;5.23;67.34
11339;BME280;5724;42.684;23.252;2023-02-19T03:17:12;94627.78;;;5.30;67.54
11339;BME280;5724;42.684;23.252;2023-02-19T03:20:02;94627.31;;;5.37;67.34
11339;BME280;5724;42.684;23.252;2023-02-19T03:22:32;94612.50;;;5.26;66.44
11339;BME280;5724;42.684;23.252;2023-02-19T03:25:08;94632.44;;;5.47;65.46
11339;BME280;5724;42.684;23.252;2023-02-19T03:27:53;94628.59;;;5.48;65.87
11339;BME280;5724;42.684;23.252;2023-02-19T03:30:26;94639.75;;;5.55;65.23
11339;BME280;5724;42.684;23.252;2023-02-19T03:35:26;94655.38;;;5.75;64.42
11339;BME280;5724;42.684;23.252;2023-02-19T03:40:30;94651.88;;;6.01;62.74
11339;BME280;5724;42.684;23.252;2023-02-19T03:43:20;94662.56;;;6.53;61.19
11339;BME280;5724;42.684;23.252;2023-02-19T03:45:57;94665.47;;;6.86;59.73
11339;BME280;5724;42.684;23.252;2023-02-19T03:48:33;94656.03;;;6.83;59.93
11339;BME280;5724;42.684;23.252;2023-02-19T03:53:55;94661.72;;;7.29;57.67
11339;BME280;5724;42.684;23.252;2023-02-19T03:59:15;94674.69;;;6.94;58.21
11339;BME280;5724;42.684;23.252;2023-02-19T04:01:57;94672.44;;;6.66;59.01
11339;BME280;5724;42.684;23.252;2023-02-19T04:04:43;94667.75;;;6.37;59.84
11339;BME280;5724;42.684;23.252;2023-02-19T04:07:10;94667.22;;;6.44;60.43
11339;BME280;5724;42.684;23.252;2023-02-19T04:09:38;94679.41;;;6.29;60.68
11339;BME280;5724;42.684;23.252;2023-02-19T04:12:06;94678.13;;;6.26;61.12
11339;BME280;5724;42.684;23.252;2023-02-19T04:14:36;94677.34;;;6.17;60.95
11339;BME280;5724;42.684;23.252;2023-02-19T04:17:07;94676.59;;;5.99;62.31
11339;BME280;5724;42.684;23.252;2023-02-19T04:19:36;94693.16;;;6.07;62.11
11339;BME280;5724;42.684;23.252;2023-02-19T04:22:05;94696.06;;;6.01;62.26
11339;BME280;5724;42.684;23.252;2023-02-19T04:24:37;94687.94;;;5.93;62.32
11339;BME280;5724;42.684;23.252;2023-02-19T04:27:04;94687.94;;;5.93;62.10
11339;BME280;5724;42.684;23.252;2023-02-19T04:29:30;94691.59;;;5.97;61.40
11339;BME280;5724;42.684;23.252;2023-02-19T04:31:56;94690.31;;;6.03;62.26
11339;BME280;5724;42.684;23.252;2023-02-19T04:34:21;94680.91;;;5.92;62.29
11339;BME280;5724;42.684;23.252;2023-02-19T04:36:47;94696.38;;;5.91;62.89
11339;BME280;5724;42.684;23.252;2023-02-19T04:39:12;94689.34;;;5.82;62.48
11339;BME280;5724;42.684;23.252;2023-02-19T04:41:38;94692.38;;;5.89;62.30
11339;BME280;5724;42.684;23.252;2023-02-19T04:44:03;94692.53;;;5.84;63.19
11339;BME280;5724;42.684;23.252;2023-02-19T04:46:30;94703.53;;;5.79;62.63
11339;BME280;5724;42.684;23.252;2023-02-19T04:48:56;94695.88;;;5.81;62.73
11339;BME280;5724;42.684;23.252;2023-02-19T04:51:21;94706.41;;;5.73;63.38
11339;BME280;5724;42.684;23.252;2023-02-19T04:53:47;94708.00;;;5.66;63.17
11339;BME280;5724;42.684;23.252;2023-02-19T04:56:14;94706.41;;;5.73;62.96
11339;BME280;5724;42.684;23.252;2023-02-19T04:58:41;94711.03;;;5.73;63.04
11339;BME280;5724;42.684;23.252;2023-02-19T05:01:07;94704.16;;;5.58;63.23
11339;BME280;5724;42.684;23.252;2023-02-19T05:03:33;94715.66;;;5.81;63.24
11339;BME280;5724;42.684;23.252;2023-02-19T05:06:04;94715.81;;;5.76;62.74
11339;BME280;5724;42.684;23.252;2023-02-19T05:08:30;94715.50;;;5.78;62.78
11339;BME280;5724;42.684;23.252;2023-02-19T05:11:03;94728.09;;;5.82;62.67
11339;BME280;5724;42.684;23.252;2023-02-19T05:13:30;94722.84;;;5.94;63.26
11339;BME280;5724;42.684;23.252;2023-02-19T05:15:57;94724.56;;;6.34;62.06
11339;BME280;5724;42.684;23.252;2023-02-19T05:18:24;94720.03;;;6.64;61.46
11339;BME280;5724;42.684;23.252;2023-02-19T05:20:51;94718.44;;;7.01;60.33
11339;BME280;5724;42.684;23.252;2023-02-19T05:23:17;94727.97;;;7.15;59.60
11339;BME280;5724;42.684;23.252;2023-02-19T05:25:43;94721.84;;;7.27;59.35
11339;BME280;5724;42.684;23.252;2023-02-19T05:28:09;94716.84;;;7.29;59.18
11339;BME280;5724;42.684;23.252;2023-02-19T05:30:50;94719.56;;;7.59;59.29
11339;BME280;5724;42.684;23.252;2023-02-19T05:33:18;94723.56;;;8.03;58.28
11339;BME280;5724;42.684;23.252;2023-02-19T05:35:49;94728.25;;;8.15;57.69
11339;BME280;5724;42.684;23.252;2023-02-19T05:38:16;94729.19;;;8.40;57.05
11339;BME280;5724;42.684;23.252;2023-02-19T05:40:43;94738.88;;;8.62;56.67
11339;BME280;5724;42.684;23.252;2023-02-19T05:43:09;94725.41;;;8.77;56.12
11339;BME280;5724;42.684;23.252;2023-02-19T05:45:36;94725.44;;;8.89;55.82
11339;BME280;5724;42.684;23.252;2023-02-19T05:48:02;94723.72;;;8.97;55.50
11339;BME280;5724;42.684;23.252;2023-02-19T05:50:28;94730.56;;;9.15;55.15
11339;BME280;5724;42.684;23.252;2023-02-19T05:52:55;94737.97;;;9.27;54.93
11339;BME280;5724;42.684;23.252;2023-02-19T05:55:20;94732.38;;;9.24;54.36
11339;BME280;5724;42.684;23.252;2023-02-19T05:57:47;94734.91;;;9.29;54.64
11339;BME280;5724;42.684;23.252;2023-02-19T06:00:15;94728.75;;;9.32;54.70
11339;BME280;5724;42.684;23.252;2023-02-19T06:02:41;94753.63;;;9.55;54.39
11339;BME280;5724;42.684;23.252;2023-02-19T06:05:07;94750.56;;;9.56;54.57
11339;BME280;5724;42.684;23.252;2023-02-19T06:07:33;94757.25;;;9.71;53.73
11339;BME280;5724;42.684;23.252;2023-02-19T06:09:59;94755.56;;;9.79;53.58
11339;BME280;5724;42.684;23.252;2023-02-19T06:12:24;94766.69;;;9.86;53.62
11339;BME280;5724;42.684;23.252;2023-02-19T06:14:50;94765.28;;;9.92;53.51
11339;BME280;5724;42.684;23.252;2023-02-19T06:17:16;94764.38;;;10.00;53.36
11339;BME280;5724;42.684;23.252;2023-02-19T06:19:41;94739.53;;;9.77;53.23
11339;BME280;5724;42.684;23.252;2023-02-19T06:22:07;94768.69;;;10.01;53.10
11339;BME280;5724;42.684;23.252;2023-02-19T06:24:33;94778.59;;;10.06;52.85
11339;BME280;5724;42.684;23.252;2023-02-19T06:27:00;94765.28;;;10.04;52.81
11339;BME280;5724;42.684;23.252;2023-02-19T06:29:25;94770.06;;;10.07;52.60
11339;BME280;5724;42.684;23.252;2023-02-19T06:31:51;94769.81;;;10.12;52.77
11339;BME280;5724;42.684;23.252;2023-02-19T06:34:17;94775.16;;;10.09;52.38
11339;BME280;5724;42.684;23.252;2023-02-19T06:36:42;94771.75;;;10.12;52.47
11339;BME280;5724;42.684;23.252;2023-02-19T06:39:09;94768.03;;;10.04;52.66
11339;BME280;5724;42.684;23.252;2023-02-19T06:41:34;94773.19;;;10.21;51.89
11339;BME280;5724;42.684;23.252;2023-02-19T06:44:00;94772.19;;;10.26;52.06
11339;BME280;5724;42.684;23.252;2023-02-19T06:46:26;94771.38;;;10.13;51.62
11339;BME280;5724;42.684;23.252;2023-02-19T06:48:51;94780.47;;;10.29;51.30
11339;BME280;5724;42.684;23.252;2023-02-19T06:51:18;94770.69;;;10.28;51.36
11339;BME280;5724;42.684;23.252;2023-02-19T06:53:46;94777.53;;;10.35;51.46
11339;BME280;5724;42.684;23.252;2023-02-19T06:56:32;94777.97;;;10.37;51.38
11339;BME280;5724;42.684;23.252;2023-02-19T06:59:00;94774.19;;;10.41;50.53
11339;BME280;5724;42.684;23.252;2023-02-19T07:01:27;94785.91;;;10.42;50.77
11339;BME280;5724;42.684;23.252;2023-02-19T07:03:53;94780.34;;;10.38;50.40
11339;BME280;5724;42.684;23.252;2023-02-19T07:06:19;94787.03;;;10.41;50.59
11339;BME280;5724;42.684;23.252;2023-02-19T07:08:45;94779.78;;;10.32;50.83
11339;BME280;5724;42.684;23.252;2023-02-19T07:11:10;94786.13;;;10.49;50.57
11339;BME280;5724;42.684;23.252;2023-02-19T07:13:36;94785.25;;;10.60;51.24
11339;BME280;5724;42.684;23.252;2023-02-19T07:16:04;94779.69;;;10.29;52.62
11339;BME280;5724;42.684;23.252;2023-02-19T07:18:32;94783.66;;;10.31;52.24
11339;BME280;5724;42.684;23.252;2023-02-19T07:21:16;94779.25;;;10.15;52.50
11339;BME280;5724;42.684;23.252;2023-02-19T07:23:43;94774.81;;;10.10;52.45
11339;BME280;5724;42.684;23.252;2023-02-19T07:26:15;94756.63;;;10.14;52.57
11339;BME280;5724;42.684;23.252;2023-02-19T07:28:45;94772.66;;;10.03;53.31
11339;BME280;5724;42.684;23.252;2023-02-19T07:31:11;94773.88;;;10.18;52.89
11339;BME280;5724;42.684;23.252;2023-02-19T07:33:37;94763.16;;;10.38;52.25
11339;BME280;5724;42.684;23.252;2023-02-19T07:36:04;94769.41;;;10.38;52.48
11339;BME280;5724;42.684;23.252;2023-02-19T07:38:30;94765.69;;;10.30;52.36
11339;BME280;5724;42.684;23.252;2023-02-19T07:41:01;94763.66;;;10.55;52.11
11339;BME280;5724;42.684;23.252;2023-02-19T07:43:29;94764.34;;;10.80;50.85
11339;BME280;5724;42.684;23.252;2023-02-19T07:45:55;94760.66;;;10.88;50.51
11339;BME280;5724;42.684;23.252;2023-02-19T07:48:21;94760.72;;;11.20;49.23
11339;BME280;5724;42.684;23.252;2023-02-19T07:50:58;94749.50;;;11.41;47.90
11339;BME280;5724;42.684;23.252;2023-02-19T07:53:25;94747.53;;;11.57;48.58
11339;BME280;5724;42.684;23.252;2023-02-19T07:55:51;94756.50;;;11.73;48.81
11339;BME280;5724;42.684;23.252;2023-02-19T07:58:17;94751.47;;;11.91;47.48
11339;BME280;5724;42.684;23.252;2023-02-19T08:00:43;94743.34;;;11.95;46.96
11339;BME280;5724;42.684;23.252;2023-02-19T08:03:09;94745.84;;;11.84;46.74
11339;BME280;5724;42.684;23.252;2023-02-19T08:05:39;94750.06;;;11.97;46.58
11339;BME280;5724;42.684;23.252;2023-02-19T08:08:07;94747.09;;;12.06;46.50
11339;BME280;5724;42.684;23.252;2023-02-19T08:10:33;94760.59;;;12.15;46.06
11339;BME280;5724;42.684;23.252;2023-02-19T08:13:17;94742.88;;;12.28;45.85
11339;BME280;5724;42.684;23.252;2023-02-19T08:15:51;94753.97;;;12.35;45.66
11339;BME280;5724;42.684;23.252;2023-02-19T08:18:19;94753.28;;;12.38;46.26
11339;BME280;5724;42.684;23.252;2023-02-19T08:20:44;94761.19;;;12.43;45.58
11339;BME280;5724;42.684;23.252;2023-02-19T08:23:10;94759.03;;;12.52;45.41
11339;BME280;5724;42.684;23.252;2023-02-19T08:25:37;94760.03;;;12.64;45.41
11339;BME280;5724;42.684;23.252;2023-02-19T08:28:03;94748.81;;;12.49;45.59
11339;BME280;5724;42.684;23.252;2023-02-19T08:30:30;94747.84;;;12.42;46.25
11339;BME280;5724;42.684;23.252;2023-02-19T08:32:57;94744.97;;;12.54;46.48
11339;BME280;5724;42.684;23.252;2023-02-19T08:35:23;94757.09;;;12.72;45.57
11339;BME280;5724;42.684;23.252;2023-02-19T08:37:48;94753.97;;;12.74;46.00
11339;BME280;5724;42.684;23.252;2023-02-19T08:40:14;94753.53;;;12.91;45.35
11339;BME280;5724;42.684;23.252;2023-02-19T08:42:39;94753.75;;;12.82;45.71
11339;BME280;5724;42.684;23.252;2023-02-19T08:45:05;94758.06;;;12.83;45.48
11339;BME280;5724;42.684;23.252;2023-02-19T08:47:33;94746.53;;;12.94;45.70
11339;BME280;5724;42.684;23.252;2023-02-19T08:49:59;94740.22;;;13.12;45.60
11339;BME280;5724;42.684;23.252;2023-02-19T08:52:24;94715.81;;;12.84;46.07
11339;BME280;5724;42.684;23.252;2023-02-19T08:54:49;94727.88;;;13.22;45.92
11339;BME280;5724;42.684;23.252;2023-02-19T08:57:15;94734.88;;;13.20;46.27
11339;BME280;5724;42.684;23.252;2023-02-19T08:59:40;94723.44;;;13.17;45.90
11339;BME280;5724;42.684;23.252;2023-02-19T09:02:08;94720.72;;;13.40;45.79
11339;BME280;5724;42.684;23.252;2023-02-19T09:04:33;94717.28;;;13.47;45.21
11339;BME280;5724;42.684;23.252;2023-02-19T09:07:00;94731.75;;;13.44;46.28
11339;BME280;5724;42.684;23.252;2023-02-19T09:09:26;94726.22;;;12.98;47.63
11339;BME280;5724;42.684;23.252;2023-02-19T09:11:51;94730.75;;;13.10;47.61
11339;BME280;5724;42.684;23.252;2023-02-19T09:14:17;94709.00;;;12.98;47.94
11339;BME280;5724;42.684;23.252;2023-02-19T09:16:42;94707.34;;;13.16;48.31
11339;BME280;5724;42.684;23.252;2023-02-19T09:19:08;94706.72;;;13.23;48.00
11339;BME280;5724;42.684;23.252;2023-02-19T09:21:33;94721.50;;;13.18;47.89
11339;BME280;5724;42.684;23.252;2023-02-19T09:23:58;94705.56;;;13.24;48.60
11339;BME280;5724;42.684;23.252;2023-02-19T09:26:24;94695.41;;;13.28;48.12
11339;BME280;5724;42.684;23.252;2023-02-19T09:28:49;94700.44;;;13.22;48.80
11339;BME280;5724;42.684;23.252;2023-02-19T09:31:15;94703.44;;;13.40;47.95
11339;BME280;5724;42.684;23.252;2023-02-19T09:33:42;94701.06;;;13.61;48.22
11339;BME280;5724;42.684;23.252;2023-02-19T09:36:08;94697.72;;;13.49;47.98
11339;BME280;5724;42.684;23.252;2023-02-19T09:38:34;94706.41;;;13.28;47.98
11339;BME280;5724;42.684;23.252;2023-02-19T09:41:06;94711.00;;;13.46;47.74
11339;BME280;5724;42.684;23.252;2023-02-19T09:43:33;94700.84;;;13.24;46.60
11339;BME280;5724;42.684;23.252;2023-02-19T09:46:08;94687.69;;;13.33;45.72
11339;BME280;5724;42.684;23.252;2023-02-19T09:48:38;94696.91;;;13.48;45.85
11339;BME280;5724;42.684;23.252;2023-02-19T09:51:04;94687.56;;;13.79;45.16
11339;BME280;5724;42.684;23.252;2023-02-19T09:53:39;94682.19;;;13.86;43.65
11339;BME280;5724;42.684;23.252;2023-02-19T09:56:06;94695.47;;;13.81;43.49
11339;BME280;5724;42.684;23.252;2023-02-19T09:58:34;94680.88;;;13.77;43.57
11339;BME280;5724;42.684;23.252;2023-02-19T10:01:02;94670.75;;;13.81;43.50
11339;BME280;5724;42.684;23.252;2023-02-19T10:03:39;94657.72;;;13.78;43.69
11339;BME280;5724;42.684;23.252;2023-02-19T10:08:39;94651.03;;;13.49;43.22
11339;BME280;5724;42.684;23.252;2023-02-19T10:11:05;94639.22;;;13.44;43.70
11339;BME280;5724;42.684;23.252;2023-02-19T10:16:23;94631.91;;;13.82;43.88
11339;BME280;5724;42.684;23.252;2023-02-19T10:18:51;94625.81;;;13.96;42.99
11339;BME280;5724;42.684;23.252;2023-02-19T10:21:23;94618.16;;;14.12;42.91
11339;BME280;5724;42.684;23.252;2023-02-19T10:24:00;94629.97;;;14.16;42.23
11339;BME280;5724;42.684;23.252;2023-02-19T10:26:27;94631.19;;;13.89;42.87
11339;BME280;5724;42.684;23.252;2023-02-19T10:28:52;94606.47;;;13.89;43.12
11339;BME280;5724;42.684;23.252;2023-02-19T10:31:24;94607.47;;;14.03;42.94
11339;BME280;5724;42.684;23.252;2023-02-19T10:33:54;94597.72;;;13.80;43.02
11339;BME280;5724;42.684;23.252;2023-02-19T10:36:35;94596.34;;;13.93;43.09
11339;BME280;5724;42.684;23.252;2023-02-19T10:39:08;94603.72;;;13.89;42.86
11339;BME280;5724;42.684;23.252;2023-02-19T10:41:47;94592.81;;;13.92;42.92
11339;BME280;5724;42.684;23.252;2023-02-19T10:44:16;94576.88;;;14.05;42.32
11339;BME280;5724;42.684;23.252;2023-02-19T10:46:50;94569.47;;;14.09;42.76
11339;BME280;5724;42.684;23.252;2023-02-19T10:51:47;94566.94;;;14.68;40.43
11339;BME280;5724;42.684;23.252;2023-02-19T10:54:28;94554.88;;;14.83;40.34
11339;BME280;5724;42.684;23.252;2023-02-19T10:59:48;94550.44;;;15.15;39.58
11339;BME280;5724;42.684;23.252;2023-02-19T11:02:18;94541.81;;;15.21;39.46
11339;BME280;5724;42.684;23.252;2023-02-19T11:05:22;94529.44;;;15.59;38.72
11339;BME280;5724;42.684;23.252;2023-02-19T11:07:52;94519.97;;;15.53;38.50
11339;BME280;5724;42.684;23.252;2023-02-19T11:10:26;94538.84;;;15.51;38.48
11339;BME280;5724;42.684;23.252;2023-02-19T11:12:55;94516.53;;;15.70;38.53
11339;BME280;5724;42.684;23.252;2023-02-19T11:15:32;94514.91;;;15.62;38.46
11339;BME280;5724;42.684;23.252;2023-02-19T11:20:55;94512.78;;;16.24;37.81
11339;BME280;5724;42.684;23.252;2023-02-19T11:23:31;94494.69;;;16.34;36.92
11339;BME280;5724;42.684;23.252;2023-02-19T11:26:02;94489.59;;;16.54;37.34
11339;BME280;5724;42.684;23.252;2023-02-19T11:28:35;94491.53;;;16.68;36.45
11339;BME280;5724;42.684;23.252;2023-02-19T11:36:40;94460.81;;;16.41;36.90
11339;BME280;5724;42.684;23.252;2023-02-19T11:47:16;94459.63;;;16.95;35.25
11339;BME280;5724;42.684;23.252;2023-02-19T11:55:20;94450.13;;;17.14;33.94
11339;BME280;5724;42.684;23.252;2023-02-19T11:58:06;94435.59;;;16.92;34.23
11339;BME280;5724;42.684;23.252;2023-02-19T12:00:47;94436.00;;;16.80;34.35
11339;BME280;5724;42.684;23.252;2023-02-19T12:06:07;94428.88;;;16.97;34.46
11339;BME280;5724;42.684;23.252;2023-02-19T12:27:04;94391.34;;;17.21;33.65
11339;BME280;5724;42.684;23.252;2023-02-19T12:30:24;94391.72;;;17.30;33.40
11339;BME280;5724;42.684;23.252;2023-02-19T12:37:43;94375.53;;;17.25;33.37
11339;BME280;5724;42.684;23.252;2023-02-19T12:43:20;94363.69;;;17.31;33.11
11339;BME280;5724;42.684;23.252;2023-02-19T12:46:10;94356.53;;;17.44;33.16
11339;BME280;5724;42.684;23.252;2023-02-19T12:53:47;94332.69;;;17.79;32.39
11339;BME280;5724;42.684;23.252;2023-02-19T12:56:27;94332.44;;;17.49;32.61
11339;BME280;5724;42.684;23.252;2023-02-19T12:58:59;94329.69;;;17.49;32.59
11339;BME280;5724;42.684;23.252;2023-02-19T13:01:32;94325.63;;;17.67;32.70
11339;BME280;5724;42.684;23.252;2023-02-19T13:06:41;94315.72;;;17.73;32.72
11339;BME280;5724;42.684;23.252;2023-02-19T13:09:24;94309.34;;;17.84;32.83
11339;BME280;5724;42.684;23.252;2023-02-19T13:12:07;94312.75;;;18.02;33.49
11339;BME280;5724;42.684;23.252;2023-02-19T13:15:02;94305.25;;;18.06;33.12
11339;BME280;5724;42.684;23.252;2023-02-19T13:17:42;94303.50;;;18.26;32.75
11339;BME280;5724;42.684;23.252;2023-02-19T13:20:19;94297.69;;;18.10;33.51
11339;BME280;5724;42.684;23.252;2023-02-19T13:23:08;94291.28;;;18.20;33.18
11339;BME280;5724;42.684;23.252;2023-02-19T13:36:36;94265.34;;;18.48;31.98
11339;BME280;5724;42.684;23.252;2023-02-19T13:39:05;94258.28;;;18.40;32.34
11339;BME280;5724;42.684;23.252;2023-02-19T13:41:39;94265.09;;;18.32;32.61
11339;BME280;5724;42.684;23.252;2023-02-19T13:44:18;94265.09;;;18.32;32.85
11339;BME280;5724;42.684;23.252;2023-02-19T13:46:45;94251.72;;;18.27;32.79
11339;BME280;5724;42.684;23.252;2023-02-19T13:51:56;94255.47;;;18.06;33.24
11339;BME280;5724;42.684;23.252;2023-02-19T13:54:30;94256.97;;;18.14;33.97
11339;BME280;5724;42.684;23.252;2023-02-19T13:59:42;94258.41;;;17.85;33.60
11339;BME280;5724;42.684;23.252;2023-02-19T14:04:57;94238.97;;;17.40;33.35
11339;BME280;5724;42.684;23.252;2023-02-19T14:09:56;94233.63;;;17.11;33.49
11339;BME280;5724;42.684;23.252;2023-02-19T14:12:31;94236.81;;;17.06;33.76
11339;BME280;5724;42.684;23.252;2023-02-19T14:18:00;94222.19;;;17.13;34.02
11339;BME280;5724;42.684;23.252;2023-02-19T14:20:43;94228.75;;;17.33;33.55
11339;BME280;5724;42.684;23.252;2023-02-19T14:23:35;94221.97;;;17.45;33.23
11339;BME280;5724;42.684;23.252;2023-02-19T14:26:01;94210.50;;;17.50;33.21
11339;BME280;5724;42.684;23.252;2023-02-19T14:28:39;94216.34;;;17.56;33.19
11339;BME280;5724;42.684;23.252;2023-02-19T14:33:41;94211.41;;;17.88;33.11
11339;BME280;5724;42.684;23.252;2023-02-19T14:36:32;94218.91;;;17.88;32.67
11339;BME280;5724;42.684;23.252;2023-02-19T14:39:08;94209.75;;;17.94;32.85
11339;BME280;5724;42.684;23.252;2023-02-19T14:41:41;94202.97;;;18.02;32.95
11339;BME280;5724;42.684;23.252;2023-02-19T14:44:48;94202.63;;;17.97;33.23
11339;BME280;5724;42.684;23.252;2023-02-19T14:47:18;94199.19;;;17.86;33.00
11339;BME280;5724;42.684;23.252;2023-02-19T14:49:58;94203.63;;;17.76;32.92
11339;BME280;5724;42.684;23.252;2023-02-19T14:52:32;94193.84;;;17.61;33.17
11339;BME280;5724;42.684;23.252;2023-02-19T14:55:07;94199.31;;;17.64;33.15
11339;BME280;5724;42.684;23.252;2023-02-19T14:57:42;94187.13;;;17.62;33.34
11339;BME280;5724;42.684;23.252;2023-02-19T15:02:49;94182.88;;;17.50;33.59
11339;BME280;5724;42.684;23.252;2023-02-19T15:05:22;94176.66;;;17.35;34.00
11339;BME280;5724;42.684;23.252;2023-02-19T15:07:48;94177.84;;;17.34;34.29
11339;BME280;5724;42.684;23.252;2023-02-19T15:10:15;94191.66;;;17.38;34.17
11339;BME280;5724;42.684;23.252;2023-02-19T15:12:56;94187.06;;;17.13;34.06
11339;BME280;5724;42.684;23.252;2023-02-19T15:15:26;94180.84;;;17.02;34.16
11339;BME280;5724;42.684;23.252;2023-02-19T15:17:54;94178.56;;;16.86;34.29
11339;BME280;5724;42.684;23.252;2023-02-19T15:20:25;94175.03;;;16.79;34.23
11339;BME280;5724;42.684;23.252;2023-02-19T15:22:52;94173.53;;;16.71;34.34
11339;BME280;5724;42.684;23.252;2023-02-19T15:25:21;94181.03;;;16.56;34.81